Time;durP1;ratioP1;P1;durP2;ratioP2;P2;SDS_P1;SDS_P2;PMS_P1;PMS_P2;Temp;Humidity;BMP_temperature;BMP_pressure;BME280_temperature;BME280_humidity;BME280_pressure;Samples;Min_cycle;Max_cycle;Signal;HPM_P1;HPM_P2
2022/07/31 00:02:56;;;;;;;7.90;4.10;;;19.10;99.90;;;;;;12415246;28;20096;-39
2022/07/31 00:08:58;;;;;;;6.90;4.07;;;18.90;99.90;;;;;;12415234;28;20072;-39
2022/07/31 00:15:02;;;;;;;6.05;4.15;;;18.70;99.90;;;;;;12420759;28;20498;-35
2022/07/31 00:21:06;;;;;;;7.82;4.40;;;18.70;99.90;;;;;;12424956;28;20061;-35
2022/07/31 00:27:09;;;;;;;7.45;5.20;;;18.50;99.90;;;;;;12428639;28;20062;-35
2022/07/31 00:33:11;;;;;;;7.45;4.70;;;18.40;99.90;;;;;;12420637;28;20499;-35
2022/07/31 00:39:13;;;;;;;8.70;5.25;;;18.30;99.90;;;;;;12422537;28;20083;-39
2022/07/31 00:45:15;;;;;;;8.20;4.60;;;18.20;99.90;;;;;;12429198;28;20088;-35
2022/07/31 00:51:22;;;;;;;7.00;4.97;;;18.20;99.90;;;;;;12414323;28;20119;-35
2022/07/31 00:57:24;;;;;;;8.10;5.00;;;18.10;99.90;;;;;;12419536;28;20525;-39
2022/07/31 01:03:26;;;;;;;7.85;4.55;;;18.10;99.90;;;;;;12408512;28;20089;-35
2022/07/31 01:09:28;;;;;;;9.80;5.15;;;18.20;99.90;;;;;;12421353;28;20441;-35
2022/07/31 01:15:30;;;;;;;7.88;4.80;;;18.20;99.90;;;;;;12422081;28;20054;-35
2022/07/31 01:21:38;;;;;;;8.57;5.10;;;18.10;99.90;;;;;;12430438;28;20476;-35
2022/07/31 01:27:57;;;;;;;8.23;5.55;;;17.90;99.90;;;;;;12423036;28;20065;-35
2022/07/31 01:34:23;;;;;;;10.05;4.95;;;17.80;99.90;;;;;;12419786;28;20125;-35
2022/07/31 01:40:36;;;;;;;9.85;5.78;;;17.80;99.90;;;;;;12379120;28;20530;-40
2022/07/31 01:46:39;;;;;;;9.23;5.67;;;17.70;99.90;;;;;;12415753;28;20042;-40
2022/07/31 01:52:42;;;;;;;;;;;17.60;99.90;;;;;;12426906;28;20064;-35
2022/07/31 01:58:46;;;;;;;10.60;6.35;;;17.70;99.90;;;;;;12429292;28;20384;-39
2022/07/31 02:04:48;;;;;;;13.80;6.65;;;17.70;99.90;;;;;;12405826;28;20046;-35
2022/07/31 02:10:51;;;;;;;11.63;6.40;;;17.50;99.90;;;;;;12422065;28;20104;-39
2022/07/31 02:16:54;;;;;;;11.70;6.15;;;17.60;99.90;;;;;;12417412;28;20176;-39
2022/07/31 02:22:57;;;;;;;10.27;6.65;;;17.50;99.90;;;;;;12422990;28;20133;-39
2022/07/31 02:28:59;;;;;;;11.73;7.13;;;17.30;99.90;;;;;;12412500;28;20049;-38
2022/07/31 02:35:03;;;;;;;11.13;7.38;;;17.10;99.90;;;;;;12424497;28;20133;-35
2022/07/31 02:41:06;;;;;;;12.07;7.30;;;17.20;99.90;;;;;;12424354;28;20100;-35
2022/07/31 02:47:08;;;;;;;11.32;6.95;;;17.20;99.90;;;;;;12424100;28;20054;-35
2022/07/31 02:53:10;;;;;;;11.43;7.78;;;17.20;99.90;;;;;;12426225;28;20050;-39
2022/07/31 02:59:12;;;;;;;15.98;8.02;;;17.10;99.90;;;;;;12415985;28;20084;-35
2022/07/31 03:05:14;;;;;;;11.40;8.00;;;17.20;99.90;;;;;;12426300;28;20054;-35
2022/07/31 03:11:16;;;;;;;11.60;7.28;;;17.20;99.90;;;;;;12422218;28;20108;-35
2022/07/31 03:17:19;;;;;;;11.13;7.60;;;17.30;99.90;;;;;;12432589;28;20057;-35
2022/07/31 03:23:24;;;;;;;15.82;7.93;;;17.30;99.90;;;;;;12430264;28;20200;-35
2022/07/31 03:29:25;;;;;;;12.48;7.80;;;17.20;99.90;;;;;;12423700;28;20046;-35
2022/07/31 03:35:44;;;;;;;11.93;8.10;;;17.20;99.90;;;;;;12430173;28;20050;-38
2022/07/31 03:41:47;;;;;;;12.68;7.78;;;17.30;99.90;;;;;;12434311;28;20061;-35
2022/07/31 03:47:48;;;;;;;14.80;8.90;;;17.10;99.90;;;;;;12407315;28;20123;-35
2022/07/31 03:53:50;;;;;;;14.07;8.15;;;16.90;99.90;;;;;;12428650;28;20058;-38
2022/07/31 03:59:56;;;;;;;9.70;7.78;;;17.10;99.90;;;;;;12431586;28;20054;-39
2022/07/31 04:05:58;;;;;;;14.23;8.88;;;17.20;99.90;;;;;;12420191;28;20057;-35
2022/07/31 04:12:01;;;;;;;12.35;8.38;;;17.00;99.90;;;;;;12430076;28;20095;-39
2022/07/31 04:18:03;;;;;;;11.82;8.35;;;16.90;99.90;;;;;;12433538;28;20054;-35
2022/07/31 04:24:05;;;;;;;11.18;7.72;;;16.80;99.90;;;;;;12417839;28;20137;-35
2022/07/31 04:30:08;;;;;;;10.75;7.65;;;16.90;99.90;;;;;;12417712;28;20418;-35
2022/07/31 04:36:10;;;;;;;9.98;8.25;;;17.00;99.90;;;;;;12369241;28;20054;-35
2022/07/31 04:42:31;;;;;;;12.60;8.43;;;17.00;99.90;;;;;;12432034;28;20465;-39
2022/07/31 04:48:34;;;;;;;15.77;8.57;;;17.10;99.90;;;;;;12440475;28;20625;-35
2022/07/31 04:54:42;;;;;;;16.02;8.93;;;17.00;99.90;;;;;;12433731;28;20563;-39
2022/07/31 05:00:44;;;;;;;11.35;7.68;;;17.20;99.90;;;;;;12430826;28;20076;-38
2022/07/31 05:06:47;;;;;;;10.93;7.57;;;17.20;99.90;;;;;;12433953;28;20046;-39
2022/07/31 05:12:49;;;;;;;10.13;7.88;;;17.20;99.90;;;;;;12428131;28;20137;-35
2022/07/31 05:18:51;;;;;;;15.30;8.05;;;17.20;99.90;;;;;;12431242;28;20054;-39
2022/07/31 05:24:53;;;;;;;10.93;8.07;;;17.20;99.90;;;;;;12417610;28;20445;-35
2022/07/31 05:30:55;;;;;;;10.43;7.35;;;17.30;99.90;;;;;;12416161;28;20426;-35
2022/07/31 05:37:00;;;;;;;11.13;7.00;;;17.30;99.90;;;;;;12429638;28;20103;-38
2022/07/31 05:43:02;;;;;;;11.02;7.63;;;17.40;99.90;;;;;;12418181;28;20053;-39
2022/07/31 05:49:04;;;;;;;8.80;7.70;;;17.40;99.90;;;;;;12427809;28;20104;-39
2022/07/31 05:55:06;;;;;;;13.38;8.18;;;17.40;99.90;;;;;;12429374;28;20889;-38
2022/07/31 06:01:08;;;;;;;9.23;7.00;;;17.40;99.90;;;;;;12438248;28;20686;-35
2022/07/31 06:07:10;;;;;;;7.40;6.60;;;17.60;99.90;;;;;;12417645;28;20046;-35
2022/07/31 06:13:13;;;;;;;9.85;6.63;;;17.60;99.90;;;;;;12408024;28;20054;-35
2022/07/31 06:19:15;;;;;;;11.52;7.70;;;17.70;99.90;;;;;;12423954;28;20053;-35
2022/07/31 06:25:17;;;;;;;13.63;8.35;;;17.70;99.90;;;;;;12424470;28;20178;-35
2022/07/31 06:31:21;;;;;;;10.75;8.30;;;17.80;99.90;;;;;;12430217;28;20077;-35
2022/07/31 06:37:23;;;;;;;11.57;7.93;;;17.90;99.90;;;;;;12423516;28;20054;-39
2022/07/31 06:43:24;;;;;;;13.50;7.18;;;18.00;99.90;;;;;;12427026;28;20104;-39
2022/07/31 06:49:27;;;;;;;9.60;6.55;;;18.20;99.90;;;;;;12416427;28;20046;-35
2022/07/31 06:55:30;;;;;;;8.33;6.00;;;18.30;99.90;;;;;;12424563;28;20046;-35
2022/07/31 07:01:32;;;;;;;12.88;5.00;;;18.50;99.90;;;;;;12423362;28;20453;-40
2022/07/31 07:07:35;;;;;;;5.43;4.00;;;18.60;99.90;;;;;;12434212;28;20195;-35
2022/07/31 07:13:37;;;;;;;11.63;3.72;;;18.80;99.90;;;;;;12432312;28;20137;-40
2022/07/31 07:19:47;;;;;;;5.50;3.83;;;18.90;99.90;;;;;;12435748;28;20100;-39
2022/07/31 07:25:55;;;;;;;10.27;3.45;;;19.10;99.90;;;;;;12434789;28;20054;-35
2022/07/31 07:31:58;;;;;;;5.82;3.08;;;19.20;99.90;;;;;;12419857;28;20053;-35
2022/07/31 07:38:00;;;;;;;8.33;3.20;;;19.40;99.90;;;;;;12442642;28;20069;-39
2022/07/31 07:44:02;;;;;;;9.13;2.80;;;19.60;99.90;;;;;;12422008;28;20141;-35
2022/07/31 07:50:08;;;;;;;7.18;2.88;;;19.60;99.90;;;;;;12425603;28;20080;-39
2022/07/31 07:56:10;;;;;;;5.30;2.25;;;19.70;99.90;;;;;;12390280;28;20046;-35
2022/07/31 08:02:12;;;;;;;4.25;1.90;;;19.80;99.90;;;;;;12425355;28;20062;-39
2022/07/31 08:08:14;;;;;;;8.45;2.50;;;19.90;99.90;;;;;;12435296;28;20132;-39
2022/07/31 08:14:16;;;;;;;5.28;1.98;;;20.20;99.90;;;;;;12436419;28;20469;-39
2022/07/31 08:20:18;;;;;;;5.25;1.67;;;20.50;99.90;;;;;;12424330;28;20533;-36
2022/07/31 08:26:19;;;;;;;9.88;2.00;;;20.70;99.90;;;;;;12412640;28;20054;-40
2022/07/31 08:32:25;;;;;;;3.50;1.70;;;21.00;99.90;;;;;;12419927;28;20057;-39
2022/07/31 08:38:27;;;;;;;6.78;1.52;;;21.30;99.90;;;;;;12431335;28;20195;-39
2022/07/31 08:44:29;;;;;;;6.13;1.67;;;21.40;99.90;;;;;;12432664;28;20514;-40
2022/07/31 08:50:34;;;;;;;6.63;2.10;;;21.50;99.90;;;;;;12434683;28;20145;-35
2022/07/31 08:56:37;;;;;;;4.18;1.75;;;21.60;99.90;;;;;;12427679;28;20153;-36
2022/07/31 09:02:39;;;;;;;4.83;1.77;;;21.70;99.90;;;;;;12431199;28;20560;-40
2022/07/31 09:08:41;;;;;;;3.58;1.70;;;21.90;99.90;;;;;;12432989;28;20125;-35
2022/07/31 09:14:47;;;;;;;6.18;1.80;;;22.10;99.90;;;;;;12408970;28;20069;-36
2022/07/31 09:21:04;;;;;;;4.55;1.80;;;22.40;99.90;;;;;;12430731;28;20609;-35
2022/07/31 09:27:08;;;;;;;4.60;1.98;;;22.60;99.90;;;;;;12412699;28;20054;-39
2022/07/31 09:33:15;;;;;;;3.90;1.80;;;22.70;99.90;;;;;;12409256;28;20587;-39
2022/07/31 09:39:17;;;;;;;3.28;1.80;;;22.80;99.90;;;;;;12415416;28;20438;-35
2022/07/31 09:45:27;;;;;;;3.33;1.80;;;22.90;99.90;;;;;;12424931;28;20072;-41
2022/07/31 09:51:40;;;;;;;5.00;2.20;;;22.80;99.90;;;;;;12420219;28;20054;-40
2022/07/31 09:57:57;;;;;;;4.85;1.95;;;22.80;99.90;;;;;;12412359;28;20054;-41
2022/07/31 10:04:00;;;;;;;4.85;2.03;;;22.90;99.90;;;;;;12419083;28;20068;-36
2022/07/31 10:10:05;;;;;;;4.63;1.95;;;22.90;99.90;;;;;;12413064;28;20566;-40
2022/07/31 10:16:08;;;;;;;4.63;1.90;;;23.30;99.90;;;;;;12398544;28;20105;-36
2022/07/31 10:22:16;;;;;;;4.67;1.77;;;23.60;99.90;;;;;;12425168;28;20418;-36
2022/07/31 10:28:19;;;;;;;4.25;1.95;;;23.60;99.90;;;;;;12418543;28;20058;-36
2022/07/31 10:34:21;;;;;;;5.35;1.88;;;23.70;99.90;;;;;;12413646;28;20050;-36
2022/07/31 10:40:47;;;;;;;5.30;1.90;;;23.60;99.90;;;;;;12425874;28;20046;-35
2022/07/31 10:46:49;;;;;;;4.03;1.98;;;23.50;99.90;;;;;;12422533;28;20054;-40
2022/07/31 10:52:52;;;;;;;4.28;1.60;;;23.60;99.90;;;;;;12427119;28;20172;-36
2022/07/31 10:59:00;;;;;;;3.95;1.75;;;23.90;99.90;;;;;;12423539;28;20414;-40
2022/07/31 11:05:22;;;;;;;5.68;1.70;;;24.00;99.90;;;;;;12426810;28;20133;-41
2022/07/31 11:11:31;;;;;;;3.97;1.63;;;23.90;99.90;;;;;;12421169;28;20053;-36
2022/07/31 11:17:37;;;;;;;4.88;1.90;;;23.90;99.90;;;;;;12414525;28;20061;-40
2022/07/31 11:24:00;;;;;;;3.78;1.90;;;23.70;99.90;;;;;;12423796;28;20403;-39
2022/07/31 11:30:07;;;;;;;8.38;2.28;;;23.60;99.90;;;;;;12411921;28;20065;-36
2022/07/31 11:36:15;;;;;;;3.22;1.95;;;23.50;99.90;;;;;;12373709;28;20510;-36
2022/07/31 11:42:18;;;;;;;6.05;2.10;;;23.40;99.90;;;;;;12413817;28;20050;-41
2022/07/31 11:48:30;;;;;;;4.68;2.38;;;23.30;99.90;;;;;;12428811;28;20054;-39
2022/07/31 11:54:40;;;;;;;4.33;1.93;;;22.90;99.90;;;;;;12430453;28;20438;-41
2022/07/31 12:00:50;;;;;;;5.75;2.30;;;22.90;99.90;;;;;;12432094;28;20489;-40
2022/07/31 12:06:55;;;;;;;4.95;2.10;;;22.80;99.90;;;;;;12437835;28;20131;-36
2022/07/31 12:12:57;;;;;;;4.25;2.05;;;22.80;99.90;;;;;;12406906;28;20050;-40
2022/07/31 12:18:59;;;;;;;4.97;2.15;;;22.60;99.90;;;;;;12426524;28;20050;-39
2022/07/31 12:25:01;;;;;;;6.20;2.42;;;22.60;99.90;;;;;;12432721;28;20426;-35
2022/07/31 12:31:09;;;;;;;8.10;2.40;;;22.60;99.90;;;;;;12417099;28;20046;-36
2022/07/31 12:37:17;;;;;;;7.38;2.85;;;22.60;99.90;;;;;;12434726;28;20054;-39
2022/07/31 12:43:23;;;;;;;4.93;2.13;;;22.60;99.90;;;;;;12421078;28;20081;-40
2022/07/31 12:49:25;;;;;;;7.00;2.70;;;22.80;99.90;;;;;;12424935;28;20107;-39
2022/07/31 12:55:29;;;;;;;5.07;2.60;;;22.60;99.90;;;;;;12431673;28;20057;-39
2022/07/31 13:01:31;;;;;;;5.07;2.42;;;22.60;99.90;;;;;;12429890;28;20095;-40
2022/07/31 13:07:33;;;;;;;8.82;2.60;;;22.70;99.90;;;;;;12410024;28;20050;-39
2022/07/31 13:13:35;;;;;;;5.50;2.35;;;22.80;99.90;;;;;;12422580;28;20405;-42
2022/07/31 13:19:37;;;;;;;4.18;2.28;;;22.70;99.90;;;;;;12428924;28;20100;-35
2022/07/31 13:25:39;;;;;;;4.18;1.90;;;22.70;99.90;;;;;;12426738;28;20046;-39
2022/07/31 13:31:40;;;;;;;4.05;1.70;;;22.70;99.90;;;;;;12426894;28;20141;-41
2022/07/31 13:37:42;;;;;;;3.05;1.50;;;22.70;99.90;;;;;;12422505;28;20100;-39
2022/07/31 13:43:44;;;;;;;3.17;1.23;;;22.70;99.90;;;;;;12412929;28;20042;-35
2022/07/31 13:50:01;;;;;;;2.17;1.35;;;22.80;99.90;;;;;;12436019;28;20112;-39
2022/07/31 13:56:03;;;;;;;3.95;1.40;;;22.80;99.90;;;;;;12421644;28;20055;-39
2022/07/31 14:02:06;;;;;;;4.13;1.90;;;22.80;99.90;;;;;;12433072;28;20061;-35
2022/07/31 14:08:08;;;;;;;6.07;1.88;;;22.70;99.90;;;;;;12424532;28;20061;-39
2022/07/31 14:14:29;;;;;;;3.33;1.50;;;22.50;99.90;;;;;;12420170;28;20053;-36
2022/07/31 14:20:33;;;;;;;2.90;1.55;;;22.60;99.90;;;;;;12425084;28;20176;-35
2022/07/31 14:26:34;;;;;;;4.53;1.58;;;22.50;99.90;;;;;;12421372;28;20115;-36
2022/07/31 14:32:36;;;;;;;3.35;1.70;;;22.20;99.90;;;;;;12418538;28;20051;-35
2022/07/31 14:38:38;;;;;;;2.83;1.65;;;21.90;99.90;;;;;;12417220;28;20050;-39
2022/07/31 14:44:40;;;;;;;3.28;1.50;;;21.70;99.90;;;;;;12424786;28;20414;-40
2022/07/31 14:50:44;;;;;;;2.73;1.63;;;21.70;99.90;;;;;;12418408;28;20060;-39
2022/07/31 14:56:45;;;;;;;3.67;1.70;;;21.70;99.90;;;;;;12429057;28;20508;-40
2022/07/31 15:03:02;;;;;;;3.75;1.90;;;21.60;99.90;;;;;;12408404;28;20065;-39
2022/07/31 15:09:04;;;;;;;4.78;2.20;;;21.50;99.90;;;;;;12432750;28;20053;-40
2022/07/31 15:15:07;;;;;;;6.00;3.10;;;21.30;99.90;;;;;;12429886;28;20193;-40
2022/07/31 15:21:16;;;;;;;7.13;3.73;;;20.60;99.90;;;;;;12430379;28;20141;-39
2022/07/31 15:27:20;;;;;;;6.30;3.47;;;20.20;99.90;;;;;;12432398;28;20200;-40
2022/07/31 15:33:24;;;;;;;4.82;3.33;;;20.40;99.90;;;;;;12435902;28;20574;-39
2022/07/31 15:39:27;;;;;;;6.93;3.83;;;20.50;99.90;;;;;;12440141;28;20050;-40
2022/07/31 15:45:29;;;;;;;6.57;3.93;;;20.50;99.90;;;;;;12422339;28;20522;-39
2022/07/31 15:51:31;;;;;;;4.53;3.70;;;20.50;99.90;;;;;;12424033;28;20086;-36
2022/07/31 15:57:33;;;;;;;5.90;4.18;;;20.40;99.90;;;;;;12425308;28;20056;-39
2022/07/31 16:03:38;;;;;;;8.25;4.28;;;20.50;99.90;;;;;;12428520;28;20116;-35
2022/07/31 16:09:54;;;;;;;7.80;3.78;;;20.50;99.90;;;;;;12424287;28;20049;-35
2022/07/31 16:16:16;;;;;;;5.57;4.03;;;20.50;99.90;;;;;;12413009;28;20069;-38
2022/07/31 16:22:17;;;;;;;6.38;4.22;;;20.40;99.90;;;;;;12411270;28;21074;-39
2022/07/31 16:28:19;;;;;;;6.20;4.20;;;20.50;99.90;;;;;;12424889;28;20080;-39
2022/07/31 16:34:21;;;;;;;5.68;4.00;;;20.50;99.90;;;;;;12424456;28;20046;-35
2022/07/31 16:40:25;;;;;;;5.60;3.60;;;20.50;99.90;;;;;;12425704;28;20053;-35
2022/07/31 16:46:32;;;;;;;5.05;3.72;;;20.60;99.90;;;;;;12432264;28;20050;-39
2022/07/31 16:52:33;;;;;;;6.72;3.53;;;20.70;99.90;;;;;;12428139;28;20080;-35
2022/07/31 16:58:35;;;;;;;6.15;3.40;;;20.80;99.90;;;;;;12411543;28;20479;-35
2022/07/31 17:04:37;;;;;;;6.07;3.05;;;20.80;99.90;;;;;;12426463;28;20046;-35
2022/07/31 17:10:39;;;;;;;6.65;3.40;;;20.80;99.90;;;;;;12432976;28;20132;-35
2022/07/31 17:16:41;;;;;;;5.75;3.50;;;20.80;99.90;;;;;;12421440;28;20099;-35
2022/07/31 17:22:56;;;;;;;5.25;3.50;;;20.80;99.90;;;;;;12436585;28;20053;-35
2022/07/31 17:28:57;;;;;;;7.03;3.20;;;20.90;99.90;;;;;;12422853;28;20124;-39
2022/07/31 17:34:59;;;;;;;6.07;3.20;;;20.90;99.90;;;;;;12411776;28;20046;-35
2022/07/31 17:41:02;;;;;;;4.32;2.47;;;21.00;99.90;;;;;;12435316;28;20434;-35
2022/07/31 17:47:05;;;;;;;5.00;2.70;;;21.00;99.90;;;;;;12434341;28;20414;-35
2022/07/31 17:53:09;;;;;;;6.75;2.75;;;21.00;99.90;;;;;;12433007;28;20089;-39
2022/07/31 17:59:14;;;;;;;6.15;2.92;;;20.90;99.90;;;;;;12434306;28;20065;-35
2022/07/31 18:05:16;;;;;;;5.68;3.30;;;20.90;99.90;;;;;;12422985;28;20136;-35
2022/07/31 18:11:18;;;;;;;4.68;2.97;;;20.90;99.90;;;;;;12414640;28;20073;-39
2022/07/31 18:17:20;;;;;;;4.22;2.90;;;21.00;99.90;;;;;;12433316;28;20058;-39
2022/07/31 18:23:28;;;;;;;5.95;3.47;;;20.80;99.90;;;;;;12434131;28;20141;-40
2022/07/31 18:29:32;;;;;;;5.05;3.85;;;20.80;99.90;;;;;;12425976;28;20057;-39
2022/07/31 18:35:34;;;;;;;8.05;4.78;;;20.60;99.90;;;;;;12435114;28;20100;-34
2022/07/31 18:41:37;;;;;;;8.88;6.80;;;20.40;99.90;;;;;;12404041;28;20050;-39
2022/07/31 18:47:39;;;;;;;10.73;7.17;;;20.20;99.90;;;;;;12410092;28;20058;-39
2022/07/31 18:53:40;;;;;;;10.13;7.50;;;20.00;99.90;;;;;;12417560;28;20077;-35
2022/07/31 18:59:42;;;;;;;9.43;6.05;;;19.80;99.90;;;;;;12436359;28;20508;-39
2022/07/31 19:05:45;;;;;;;10.20;6.63;;;19.70;99.90;;;;;;12418698;28;20057;-39
2022/07/31 19:11:47;;;;;;;12.77;5.68;;;19.50;99.90;;;;;;12424624;28;20049;-39
2022/07/31 19:17:52;;;;;;;8.77;4.95;;;19.30;99.90;;;;;;12426469;28;20478;-35
2022/07/31 19:24:02;;;;;;;5.50;4.90;;;19.20;99.90;;;;;;12434789;28;20049;-39
2022/07/31 19:30:06;;;;;;;9.85;5.70;;;19.10;99.90;;;;;;12427322;28;20058;-40
2022/07/31 19:36:09;;;;;;;8.50;5.82;;;19.10;99.90;;;;;;12382544;28;20181;-40
2022/07/31 19:42:11;;;;;;;6.85;5.93;;;19.10;99.90;;;;;;12441353;28;20096;-35
2022/07/31 19:48:13;;;;;;;7.65;6.25;;;19.10;99.90;;;;;;12425806;28;20620;-36
2022/07/31 19:54:15;;;;;;;8.57;6.60;;;19.00;99.90;;;;;;12424205;28;20054;-41
2022/07/31 20:00:17;;;;;;;8.45;6.78;;;19.00;99.90;;;;;;12438101;28;20064;-35
2022/07/31 20:06:19;;;;;;;9.85;7.43;;;19.00;99.90;;;;;;12434408;28;20054;-35
2022/07/31 20:12:21;;;;;;;10.00;7.18;;;19.10;99.90;;;;;;12444146;28;20674;-35
2022/07/31 20:18:26;;;;;;;10.85;7.38;;;19.10;99.90;;;;;;12441911;28;20129;-39
2022/07/31 20:24:29;;;;;;;10.60;8.05;;;19.10;99.90;;;;;;12436258;28;20047;-39
2022/07/31 20:30:31;;;;;;;9.45;8.05;;;19.20;99.90;;;;;;12417273;28;20054;-39
2022/07/31 20:36:33;;;;;;;17.27;8.57;;;19.20;99.90;;;;;;12427429;28;20050;-36
2022/07/31 20:42:37;;;;;;;9.80;7.32;;;19.20;99.90;;;;;;12413328;28;20058;-40
2022/07/31 20:48:38;;;;;;;11.60;7.28;;;19.20;99.90;;;;;;12434032;28;20058;-35
2022/07/31 20:54:40;;;;;;;8.93;7.32;;;19.20;99.90;;;;;;12434081;28;20042;-40
2022/07/31 21:00:44;;;;;;;11.30;7.85;;;19.20;99.90;;;;;;12423240;28;20054;-39
2022/07/31 21:06:45;;;;;;;9.73;6.40;;;19.20;99.90;;;;;;12428466;28;20042;-39
2022/07/31 21:12:47;;;;;;;7.35;6.40;;;19.10;99.90;;;;;;12423537;28;20104;-40
2022/07/31 21:18:49;;;;;;;8.23;6.00;;;19.10;99.90;;;;;;12425369;28;20046;-35
2022/07/31 21:24:53;;;;;;;;;;;19.00;99.90;;;;;;12431425;28;20042;-35
2022/07/31 21:30:55;;;;;;;7.07;5.93;;;19.00;99.90;;;;;;12424290;28;19930;-35
2022/07/31 21:36:58;;;;;;;6.63;5.25;;;18.90;99.90;;;;;;12429427;28;20045;-35
2022/07/31 21:43:01;;;;;;;8.18;5.28;;;18.90;99.90;;;;;;12416486;28;20137;-35
2022/07/31 21:49:03;;;;;;;6.33;5.57;;;18.80;99.90;;;;;;12426323;28;20054;-39
2022/07/31 21:55:06;;;;;;;7.90;5.78;;;18.80;99.90;;;;;;12427049;28;20050;-39
2022/07/31 22:01:10;;;;;;;6.22;5.15;;;18.80;99.90;;;;;;12397815;28;20054;-39
2022/07/31 22:07:30;;;;;;;10.23;6.35;;;18.80;99.90;;;;;;12422924;28;20406;-39
2022/07/31 22:13:32;;;;;;;8.27;6.65;;;18.70;99.90;;;;;;12438949;28;20147;-35
2022/07/31 22:19:34;;;;;;;8.65;7.03;;;18.70;99.90;;;;;;12423770;28;20418;-39
2022/07/31 22:25:47;;;;;;;11.98;7.78;;;18.70;99.90;;;;;;12421141;28;20086;-35
2022/07/31 22:31:48;;;;;;;;;;;18.80;99.90;;;;;;12406535;28;20111;-39
2022/07/31 22:37:54;;;;;;;10.85;7.90;;;18.90;99.90;;;;;;12424941;28;20328;-39
2022/07/31 22:43:56;;;;;;;12.27;6.90;;;18.90;99.90;;;;;;12428247;28;20502;-35
2022/07/31 22:50:16;;;;;;;12.25;7.00;;;18.90;99.90;;;;;;12418022;28;20108;-35
2022/07/31 22:56:19;;;;;;;11.73;8.13;;;18.90;99.90;;;;;;12420577;28;20054;-39
2022/07/31 23:02:20;;;;;;;11.77;7.50;;;18.80;99.90;;;;;;12425548;28;20542;-39
2022/07/31 23:08:22;;;;;;;11.27;8.30;;;18.70;99.90;;;;;;12411193;28;20415;-35
2022/07/31 23:14:24;;;;;;;11.63;8.38;;;18.70;99.90;;;;;;12411985;28;20046;-38
2022/07/31 23:20:26;;;;;;;11.63;8.30;;;18.70;99.90;;;;;;12426658;28;20050;-35
2022/07/31 23:26:28;;;;;;;15.45;8.38;;;18.70;99.90;;;;;;12412625;28;20185;-39
2022/07/31 23:32:30;;;;;;;13.05;8.65;;;18.70;99.90;;;;;;12433199;28;20042;-36
2022/07/31 23:38:32;;;;;;;13.88;8.73;;;18.70;99.90;;;;;;12422792;28;20050;-39
2022/07/31 23:44:33;;;;;;;9.68;7.97;;;18.60;99.90;;;;;;12414799;28;20111;-35
2022/07/31 23:50:43;;;;;;;9.75;6.13;;;18.50;99.90;;;;;;12432011;28;20058;-39
2022/07/31 23:56:45;;;;;;;12.32;5.88;;;18.40;99.90;;;;;;12425191;28;20100;-35
